Terminal Aerodrome Forecast
Issued by NWS

Home | Current Version | Previous Version | Text Only | Print | Product List | Glossary On
Versions: 1 2 3 4 5 6 7 8 9 10 11 12 13 14 15 16 17 18 19
159
FTUS44 KBMX 231720
TAFTCL
TAF
KTCL 231720Z 2318/2418 20010KT P6SM BKN025
     FM240100 15004KT P6SM BKN060
     FM240400 15004KT 5SM BR VCSH OVC015
     FM241400 18007KT P6SM VCSH BKN025=

USA.gov is the U.S. government's official web portal to all federal, state and local government web resources and services.